sensor_id;sensor_type;location;lat;lon;timestamp;pressure;altitude;pressure_sealevel;temperature;humidity
9229;BME280;4649;42.644;23.284;2023-05-28T00:31:10;93021.00;;;14.16;100.00
9229;BME280;4649;42.644;23.284;2023-05-28T00:33:39;92919.91;;;13.51;100.00
9229;BME280;4649;42.644;23.284;2023-05-28T00:36:14;92945.84;;;13.52;100.00
9229;BME280;4649;42.644;23.284;2023-05-28T00:38:44;93005.13;;;14.20;100.00
9229;BME280;4649;42.644;23.284;2023-05-28T00:41:29;93018.00;;;14.19;100.00
9229;BME280;4649;42.644;23.284;2023-05-28T00:43:57;92812.38;;;12.95;100.00
9229;BME280;4649;42.644;23.284;2023-05-28T00:46:29;92955.06;;;13.68;100.00
9229;BME280;4649;42.644;23.284;2023-05-28T00:49:17;92827.41;;;12.73;100.00
9229;BME280;4649;42.644;23.284;2023-05-28T00:55:20;92894.47;;;13.07;100.00
9229;BME280;4649;42.644;23.284;2023-05-28T00:57:54;92875.00;;;12.79;100.00
9229;BME280;4649;42.644;23.284;2023-05-28T01:58:08;92874.47;;;13.46;100.00
9229;BME280;4649;42.644;23.284;2023-05-28T02:01:01;92851.34;;;13.22;100.00
9229;BME280;4649;42.644;23.284;2023-05-28T02:04:02;92826.75;;;12.90;100.00
9229;BME280;4649;42.644;23.284;2023-05-28T02:07:10;92968.47;;;13.84;100.00
9229;BME280;4649;42.644;23.284;2023-05-28T02:09:55;92844.34;;;13.08;100.00
9229;BME280;4649;42.644;23.284;2023-05-28T02:15:48;92904.97;;;13.39;100.00
9229;BME280;4649;42.644;23.284;2023-05-28T02:18:29;92906.47;;;13.40;100.00
9229;BME280;4649;42.644;23.284;2023-05-28T02:21:21;92861.88;;;13.07;100.00
9229;BME280;4649;42.644;23.284;2023-05-28T02:24:26;92922.22;;;13.66;100.00
9229;BME280;4649;42.644;23.284;2023-05-28T02:27:19;92987.75;;;14.23;100.00
9229;BME280;4649;42.644;23.284;2023-05-28T02:30:28;92948.53;;;13.95;100.00
9229;BME280;4649;42.644;23.284;2023-05-28T03:45:50;92871.69;;;13.15;100.00
9229;BME280;4649;42.644;23.284;2023-05-28T03:48:32;92911.53;;;13.68;100.00
9229;BME280;4649;42.644;23.284;2023-05-28T03:51:03;92876.00;;;13.24;100.00
9229;BME280;4649;42.644;23.284;2023-05-28T03:54:11;92783.66;;;12.34;100.00
9229;BME280;4649;42.644;23.284;2023-05-28T03:56:57;92861.00;;;12.99;100.00
9229;BME280;4649;42.644;23.284;2023-05-28T04:06:11;92851.44;;;12.92;100.00
9229;BME280;4649;42.644;23.284;2023-05-28T04:09:02;92996.38;;;13.66;100.00
9229;BME280;4649;42.644;23.284;2023-05-28T04:12:08;92801.81;;;12.44;100.00
9229;BME280;4649;42.644;23.284;2023-05-28T04:14:55;92943.81;;;13.58;100.00
9229;BME280;4649;42.644;23.284;2023-05-28T04:18:04;92992.13;;;14.13;100.00
9229;BME280;4649;42.644;23.284;2023-05-28T04:20:34;92921.63;;;13.73;100.00
9229;BME280;4649;42.644;23.284;2023-05-28T04:35:41;92810.63;;;12.74;100.00
9229;BME280;4649;42.644;23.284;2023-05-28T04:38:24;93006.97;;;14.12;100.00
9229;BME280;4649;42.644;23.284;2023-05-28T04:41:26;92815.38;;;12.68;100.00
9229;BME280;4649;42.644;23.284;2023-05-28T04:46:42;92970.00;;;13.98;100.00
9229;BME280;4649;42.644;23.284;2023-05-28T04:49:27;93021.88;;;14.05;100.00
9229;BME280;4649;42.644;23.284;2023-05-28T04:52:25;92805.75;;;12.43;100.00
9229;BME280;4649;42.644;23.284;2023-05-28T04:55:42;92825.63;;;12.57;100.00
9229;BME280;4649;42.644;23.284;2023-05-28T05:04:12;92883.97;;;12.98;100.00
9229;BME280;4649;42.644;23.284;2023-05-28T06:45:02;93000.34;;;14.26;100.00
9229;BME280;4649;42.644;23.284;2023-05-28T06:50:48;92960.25;;;14.26;100.00
9229;BME280;4649;42.644;23.284;2023-05-28T10:09:25;92900.06;;;15.90;100.00
9229;BME280;4649;42.644;23.284;2023-05-28T10:12:17;92905.81;;;15.99;100.00
9229;BME280;4649;42.644;23.284;2023-05-28T10:22:02;92920.44;;;16.35;100.00
9229;BME280;4649;42.644;23.284;2023-05-28T13:39:49;92855.38;;;16.13;100.00
9229;BME280;4649;42.644;23.284;2023-05-28T13:44:57;92910.19;;;16.48;100.00
9229;BME280;4649;42.644;23.284;2023-05-28T14:09:42;92751.56;;;18.25;100.00
9229;BME280;4649;42.644;23.284;2023-05-28T14:16:07;92812.34;;;19.35;87.16
9229;BME280;4649;42.644;23.284;2023-05-28T14:19:05;92874.41;;;19.84;91.80
9229;BME280;4649;42.644;23.284;2023-05-28T14:22:03;92878.72;;;19.48;87.90
9229;BME280;4649;42.644;23.284;2023-05-28T14:24:46;92803.94;;;19.25;94.39
9229;BME280;4649;42.644;23.284;2023-05-28T14:27:24;92777.41;;;19.28;90.23
9229;BME280;4649;42.644;23.284;2023-05-28T14:30:39;92810.63;;;19.61;86.25
9229;BME280;4649;42.644;23.284;2023-05-28T14:33:22;92707.13;;;18.63;86.78
9229;BME280;4649;42.644;23.284;2023-05-28T15:03:54;92835.25;;;19.76;80.83
9229;BME280;4649;42.644;23.284;2023-05-28T15:06:51;92782.88;;;19.35;76.64
9229;BME280;4649;42.644;23.284;2023-05-28T15:13:23;92801.75;;;19.24;78.50
9229;BME280;4649;42.644;23.284;2023-05-28T15:16:08;92847.59;;;19.60;76.61
9229;BME280;4649;42.644;23.284;2023-05-28T15:18:57;92857.97;;;19.77;75.70
9229;BME280;4649;42.644;23.284;2023-05-28T15:31:00;92843.03;;;19.48;74.58
9229;BME280;4649;42.644;23.284;2023-05-28T19:43:27;92765.25;;;13.11;100.00
9229;BME280;4649;42.644;23.284;2023-05-28T19:48:31;92955.56;;;14.58;100.00
9229;BME280;4649;42.644;23.284;2023-05-28T19:50:58;92961.34;;;14.67;100.00
9229;BME280;4649;42.644;23.284;2023-05-28T20:00:38;92959.66;;;14.33;100.00
9229;BME280;4649;42.644;23.284;2023-05-28T20:03:19;92955.22;;;14.30;100.00
9229;BME280;4649;42.644;23.284;2023-05-28T20:05:50;92895.53;;;13.83;100.00
9229;BME280;4649;42.644;23.284;2023-05-28T20:08:18;92917.88;;;13.94;100.00
9229;BME280;4649;42.644;23.284;2023-05-28T20:10:46;92901.19;;;14.03;100.00
9229;BME280;4649;42.644;23.284;2023-05-28T20:13:18;92858.09;;;13.70;100.00
9229;BME280;4649;42.644;23.284;2023-05-28T20:21:02;92847.09;;;13.81;100.00
9229;BME280;4649;42.644;23.284;2023-05-28T20:23:53;92845.00;;;13.87;100.00
9229;BME280;4649;42.644;23.284;2023-05-28T20:26:53;92929.00;;;14.46;100.00
9229;BME280;4649;42.644;23.284;2023-05-28T20:29:24;92852.47;;;13.99;100.00
9229;BME280;4649;42.644;23.284;2023-05-28T20:31:52;92970.16;;;14.73;100.00
9229;BME280;4649;42.644;23.284;2023-05-28T20:34:28;92877.22;;;14.01;100.00
9229;BME280;4649;42.644;23.284;2023-05-28T20:37:14;92859.22;;;13.80;100.00
9229;BME280;4649;42.644;23.284;2023-05-28T20:39:42;92955.03;;;14.60;100.00
9229;BME280;4649;42.644;23.284;2023-05-28T20:42:19;92758.66;;;13.25;100.00
9229;BME280;4649;42.644;23.284;2023-05-28T20:50:46;92951.22;;;14.50;100.00
9229;BME280;4649;42.644;23.284;2023-05-28T20:53:23;92886.78;;;14.08;100.00
9229;BME280;4649;42.644;23.284;2023-05-28T20:56:07;92867.03;;;14.02;100.00
9229;BME280;4649;42.644;23.284;2023-05-28T20:58:49;92759.22;;;13.37;100.00
9229;BME280;4649;42.644;23.284;2023-05-28T21:01:31;92919.38;;;14.45;100.00
9229;BME280;4649;42.644;23.284;2023-05-28T21:04:41;92845.72;;;14.06;100.00
9229;BME280;4649;42.644;23.284;2023-05-28T21:10:34;92920.66;;;14.57;100.00
9229;BME280;4649;42.644;23.284;2023-05-28T21:13:08;92831.56;;;14.07;100.00
9229;BME280;4649;42.644;23.284;2023-05-28T21:15:43;92857.84;;;14.23;100.00
9229;BME280;4649;42.644;23.284;2023-05-28T21:18:30;92901.72;;;14.33;100.00
9229;BME280;4649;42.644;23.284;2023-05-28T21:21:16;92875.25;;;14.33;100.00
9229;BME280;4649;42.644;23.284;2023-05-28T21:23:58;92798.88;;;13.63;100.00
9229;BME280;4649;42.644;23.284;2023-05-28T21:26:44;92900.47;;;14.34;100.00
9229;BME280;4649;42.644;23.284;2023-05-28T21:29:23;92873.56;;;14.30;100.00
9229;BME280;4649;42.644;23.284;2023-05-28T21:31:51;92904.41;;;14.20;100.00
9229;BME280;4649;42.644;23.284;2023-05-28T21:34:33;92959.53;;;14.57;100.00
9229;BME280;4649;42.644;23.284;2023-05-28T21:37:11;92929.72;;;14.33;100.00
9229;BME280;4649;42.644;23.284;2023-05-28T21:39:38;92935.75;;;14.58;100.00
9229;BME280;4649;42.644;23.284;2023-05-28T21:42:11;92809.19;;;13.52;100.00
9229;BME280;4649;42.644;23.284;2023-05-28T21:44:43;92837.06;;;13.71;100.00
9229;BME280;4649;42.644;23.284;2023-05-28T21:47:13;92918.84;;;14.15;100.00
9229;BME280;4649;42.644;23.284;2023-05-28T21:50:11;92788.47;;;13.12;100.00
9229;BME280;4649;42.644;23.284;2023-05-28T21:52:41;92754.63;;;12.71;100.00
9229;BME280;4649;42.644;23.284;2023-05-28T21:55:26;92766.22;;;12.72;100.00
9229;BME280;4649;42.644;23.284;2023-05-28T22:01:21;92859.94;;;13.44;100.00
9229;BME280;4649;42.644;23.284;2023-05-28T22:04:04;92727.66;;;12.55;100.00
9229;BME280;4649;42.644;23.284;2023-05-28T22:06:48;92723.63;;;12.61;100.00
9229;BME280;4649;42.644;23.284;2023-05-28T22:09:31;92941.66;;;14.12;100.00
9229;BME280;4649;42.644;23.284;2023-05-28T22:12:13;92912.72;;;14.09;100.00
9229;BME280;4649;42.644;23.284;2023-05-28T22:14:47;92927.66;;;14.21;100.00
9229;BME280;4649;42.644;23.284;2023-05-28T22:30:30;92667.31;;;12.25;100.00
9229;BME280;4649;42.644;23.284;2023-05-28T22:39:35;92715.75;;;12.39;100.00
9229;BME280;4649;42.644;23.284;2023-05-28T22:42:38;92799.91;;;12.87;100.00
9229;BME280;4649;42.644;23.284;2023-05-28T22:45:26;92689.66;;;12.13;100.00
9229;BME280;4649;42.644;23.284;2023-05-28T22:48:02;92901.63;;;13.52;100.00
9229;BME280;4649;42.644;23.284;2023-05-28T22:50:52;92790.16;;;12.73;100.00
9229;BME280;4649;42.644;23.284;2023-05-28T22:53:36;92723.69;;;12.14;100.00
9229;BME280;4649;42.644;23.284;2023-05-28T23:00:06;92712.72;;;12.01;100.00
9229;BME280;4649;42.644;23.284;2023-05-28T23:08:41;92806.56;;;12.62;100.00
9229;BME280;4649;42.644;23.284;2023-05-28T23:14:13;92690.22;;;11.82;100.00
9229;BME280;4649;42.644;23.284;2023-05-28T23:16:59;92902.72;;;13.43;100.00
9229;BME280;4649;42.644;23.284;2023-05-28T23:19:48;92836.31;;;12.97;100.00
9229;BME280;4649;42.644;23.284;2023-05-28T23:22:40;92724.81;;;12.23;100.00
